Time;durP1;ratioP1;P1;durP2;ratioP2;P2;SDS_P1;SDS_P2;PMS_P1;PMS_P2;Temp;Humidity;BMP_temperature;BMP_pressure;BME280_temperature;BME280_humidity;BME280_pressure;Samples;Min_cycle;Max_cycle;Signal;HPM_P1;HPM_P2
2021/12/05 00:22:56;;;;;;;29.73;20.27;;;;;;;6.89;66.06;100197.72;5008536;28;20088;-71
2021/12/05 00:25:28;;;;;;;27.42;19.38;;;;;;;7.04;65.14;100184.84;5008585;28;20120;-70
2021/12/05 00:31:21;;;;;;;26.27;17.05;;;;;;;6.21;67.31;100185.56;4991810;28;20049;-71
2021/12/05 00:55:04;;;;;;;21.17;13.20;;;;;;;7.26;64.41;100164.19;5007204;28;20567;-71
2021/12/05 01:11:22;;;;;;;21.90;12.05;;;;;;;8.03;61.55;100152.63;5007865;28;20081;-71
2021/12/05 01:14:10;;;;;;;21.05;13.30;;;;;;;7.87;62.04;100128.13;5008498;28;20052;-69
2021/12/05 01:16:37;;;;;;;17.27;12.02;;;;;;;7.84;61.98;100154.22;5005943;28;20041;-70
2021/12/05 01:19:05;;;;;;;18.17;13.07;;;;;;;7.73;62.35;100159.38;5011151;28;20129;-71
2021/12/05 01:21:31;;;;;;;23.75;14.50;;;;;;;7.47;61.87;100122.63;5005851;28;20456;-70
2021/12/05 01:24:09;;;;;;;18.30;11.65;;;;;;;7.23;63.08;100118.06;5004570;28;20107;-70
2021/12/05 01:37:21;;;;;;;22.52;16.25;;;;;;;6.00;67.18;100093.25;5005275;28;20057;-71
2021/12/05 01:40:22;;;;;;;;;;;;;;;6.71;66.66;100135.81;5007066;28;20050;-69
2021/12/05 02:36:23;;;;;;;34.78;22.42;;;;;;;6.57;68.23;100095.69;4986328;28;20120;-69
2021/12/05 02:39:01;;;;;;;36.50;23.45;;;;;;;7.11;66.35;100105.78;4986011;28;20054;-71
2021/12/05 02:41:21;;;;;;;38.30;23.48;;;;;;;7.25;64.65;100058.06;4984359;28;20092;-70
2021/12/05 02:43:57;;;;;;;37.53;23.67;;;;;;;7.62;64.20;100093.13;4984738;28;20038;-70
2021/12/05 02:46:25;;;;;;;33.47;23.23;;;;;;;7.06;65.05;100099.66;4981797;28;20046;-71
2021/12/05 02:48:51;;;;;;;38.95;25.05;;;;;;;6.84;65.94;100077.72;4987683;28;20050;-70
2021/12/05 02:51:21;;;;;;;35.80;24.70;;;;;;;6.38;67.58;100047.69;4984655;28;20043;-71
2021/12/05 02:53:55;;;;;;;34.22;21.40;;;;;;;6.32;67.77;100048.47;4986030;28;20410;-70
2021/12/05 02:56:24;;;;;;;36.55;21.70;;;;;;;6.35;68.48;100090.22;4986281;28;20136;-70
2021/12/05 02:58:55;;;;;;;33.03;22.35;;;;;;;5.82;70.05;100070.41;4985220;28;20050;-70
2021/12/05 03:01:38;;;;;;;41.95;23.15;;;;;;;6.15;69.80;100089.97;4984681;28;21123;-70
2021/12/05 03:04:05;;;;;;;40.33;23.92;;;;;;;4.82;72.91;100079.28;4987108;28;20594;-70
2021/12/05 03:06:33;;;;;;;38.50;23.90;;;;;;;5.05;72.99;100076.16;4984394;28;20133;-71
2021/12/05 03:09:08;;;;;;;44.35;27.70;;;;;;;4.28;75.90;100085.16;4984913;28;20046;-71
2021/12/05 03:11:35;;;;;;;40.80;25.73;;;;;;;4.00;76.43;100045.66;5008304;28;20507;-70
2021/12/05 03:14:01;;;;;;;39.38;28.20;;;;;;;4.07;76.81;100075.19;5004003;28;20060;-70
2021/12/05 03:16:28;;;;;;;38.22;26.02;;;;;;;4.57;76.04;100074.47;5003808;28;20104;-69
2021/12/05 03:18:53;;;;;;;38.78;25.48;;;;;;;4.57;74.78;100041.56;5005933;28;20077;-71
2021/12/05 03:21:20;;;;;;;43.20;24.23;;;;;;;5.29;72.57;100083.50;5006602;28;20111;-70
2021/12/05 03:23:48;;;;;;;39.75;26.35;;;;;;;5.99;70.95;100088.88;5003877;28;20048;-69
2021/12/05 03:26:19;;;;;;;31.67;24.17;;;;;;;5.38;72.01;100083.63;5005191;28;20145;-70
2021/12/05 03:28:45;;;;;;;39.55;27.77;;;;;;;5.06;73.42;100085.75;5005017;28;20450;-70
2021/12/05 03:31:12;;;;;;;35.92;24.75;;;;;;;4.79;73.79;100075.72;5005195;28;20426;-69
2021/12/05 03:33:38;;;;;;;34.88;24.48;;;;;;;4.47;74.52;100034.41;5004804;28;20052;-70
2021/12/05 03:36:06;;;;;;;38.28;25.67;;;;;;;4.81;75.08;100092.22;5006534;28;20030;-69
2021/12/05 03:38:33;;;;;;;40.08;25.05;;;;;;;5.55;72.30;100086.53;5005679;28;20058;-69
2021/12/05 03:40:58;;;;;;;32.22;24.10;;;;;;;6.36;69.73;100089.34;5004587;28;20178;-70
2021/12/05 03:43:24;;;;;;;42.83;24.35;;;;;;;6.17;69.18;100056.13;5006374;28;20501;-70
2021/12/05 03:45:53;;;;;;;41.10;26.45;;;;;;;6.16;69.20;100081.31;5008913;28;20037;-71
2021/12/05 03:48:23;;;;;;;38.10;24.67;;;;;;;6.89;67.40;100090.81;5003499;28;20069;-70
2021/12/05 03:50:49;;;;;;;36.28;24.15;;;;;;;6.76;67.60;100085.44;5009083;28;20393;-70
2021/12/05 03:53:16;;;;;;;35.03;23.42;;;;;;;7.24;65.98;100070.25;5008006;28;20108;-70
2021/12/05 03:55:48;;;;;;;38.63;24.98;;;;;;;7.60;64.78;100087.03;5007418;28;20112;-70
2021/12/05 03:58:14;;;;;;;35.15;24.13;;;;;;;7.71;64.40;100095.81;5009511;28;20053;-70
2021/12/05 04:00:43;;;;;;;37.83;25.27;;;;;;;7.55;64.66;100067.84;5009049;28;20042;-69
2021/12/05 04:03:11;;;;;;;39.65;25.35;;;;;;;7.67;64.24;100083.59;5008743;28;20030;-70
2021/12/05 04:05:37;;;;;;;40.88;25.30;;;;;;;7.95;63.44;100094.19;5007275;28;20132;-70
2021/12/05 04:08:10;;;;;;;44.97;26.30;;;;;;;7.52;63.78;100055.66;5009745;28;20474;-70
2021/12/05 04:10:38;;;;;;;34.60;25.77;;;;;;;6.91;64.87;100060.41;5006787;28;20046;-70
2021/12/05 04:13:04;;;;;;;34.70;25.10;;;;;;;6.92;66.37;100101.25;5007180;28;20053;-70
2021/12/05 04:15:29;;;;;;;37.80;25.80;;;;;;;7.17;66.09;100100.63;5009210;28;20092;-70
2021/12/05 04:17:55;;;;;;;38.92;25.20;;;;;;;6.73;66.87;100098.47;5006719;28;20025;-71
2021/12/05 04:20:21;;;;;;;34.53;25.35;;;;;;;6.88;66.45;100096.84;5008061;28;20133;-69
2021/12/05 04:22:47;;;;;;;38.05;25.38;;;;;;;7.43;65.13;100109.53;5009215;28;20145;-71
2021/12/05 04:25:14;;;;;;;37.20;25.83;;;;;;;7.57;63.87;100076.56;5009216;28;20050;-70
2021/12/05 04:27:43;;;;;;;37.15;24.23;;;;;;;7.88;63.35;100108.09;5010123;28;20038;-70
2021/12/05 04:30:10;;;;;;;43.90;25.98;;;;;;;7.97;63.44;100108.16;5009170;28;20042;-70
2021/12/05 04:32:36;;;;;;;32.67;23.42;;;;;;;8.15;62.57;100116.09;5008503;28;20132;-70
2021/12/05 04:35:02;;;;;;;39.35;25.80;;;;;;;7.95;62.19;100063.72;5007479;28;20482;-68
2021/12/05 04:37:27;;;;;;;38.17;25.85;;;;;;;8.22;62.21;100110.03;5008340;28;20053;-70
2021/12/05 04:39:53;;;;;;;35.90;24.00;;;;;;;8.17;62.25;100093.47;5006968;28;20037;-69
2021/12/05 04:42:18;;;;;;;42.45;26.70;;;;;;;8.23;62.56;100114.38;5009192;28;20044;-70
2021/12/05 04:44:44;;;;;;;35.67;21.48;;;;;;;7.85;62.75;100106.34;5006139;28;20065;-71
2021/12/05 04:47:10;;;;;;;30.88;20.88;;;;;;;7.52;63.37;100068.72;5007424;28;20071;-71
2021/12/05 04:49:39;;;;;;;33.58;21.02;;;;;;;7.85;62.81;100108.97;5007694;28;20155;-70
2021/12/05 04:52:05;;;;;;;24.52;17.55;;;;;;;6.95;65.22;100110.00;5008507;28;20050;-71
2021/12/05 04:54:30;;;;;;;24.27;17.48;;;;;;;6.93;65.40;100121.25;5006649;28;20049;-69
2021/12/05 04:56:56;;;;;;;21.67;16.00;;;;;;;6.86;65.34;100120.34;5008356;28;20096;-69
2021/12/05 04:59:24;;;;;;;29.70;18.30;;;;;;;6.97;65.94;100112.59;5007302;28;20052;-70
2021/12/05 05:01:52;;;;;;;29.50;17.58;;;;;;;6.26;67.04;100066.66;5007443;28;20129;-71
2021/12/05 05:04:29;;;;;;;31.73;19.73;;;;;;;6.65;67.01;100113.16;5007334;28;20070;-70
2021/12/05 05:07:04;;;;;;;24.35;17.85;;;;;;;6.18;67.45;100076.09;5007889;28;20050;-70
2021/12/05 05:09:30;;;;;;;33.40;19.45;;;;;;;6.19;67.27;100073.53;5007015;28;20033;-70
2021/12/05 05:11:56;;;;;;;28.63;18.80;;;;;;;6.04;68.36;100095.06;5012711;28;20084;-70
2021/12/05 05:14:22;;;;;;;26.70;16.75;;;;;;;5.69;68.58;100055.50;5008036;28;20046;-70
2021/12/05 05:16:52;;;;;;;24.73;17.50;;;;;;;6.38;68.25;100098.06;5008966;28;20569;-70
2021/12/05 05:19:18;;;;;;;29.08;18.55;;;;;;;5.64;69.32;100057.13;5009372;28;20050;-70
2021/12/05 05:21:52;;;;;;;26.67;18.20;;;;;;;5.81;68.86;100049.56;5007312;28;20125;-70
2021/12/05 05:50:17;;;;;;;24.60;17.90;;;;;;;5.89;68.12;100060.94;5006125;28;20476;-70
2021/12/05 05:52:43;;;;;;;25.08;17.08;;;;;;;5.95;68.44;100105.34;5005214;28;20038;-70
2021/12/05 05:55:10;;;;;;;21.33;16.00;;;;;;;5.32;70.76;100111.31;5007378;28;20069;-71
2021/12/05 05:57:48;;;;;;;25.98;16.33;;;;;;;5.25;71.11;100113.78;5004801;28;20073;-71
2021/12/05 06:00:28;;;;;;;30.08;18.65;;;;;;;6.37;68.34;100122.38;5006618;28;20061;-70
2021/12/05 06:05:38;;;;;;;21.50;13.27;;;;;;;5.83;67.99;100124.25;5004578;28;20523;-70
2021/12/05 06:08:04;;;;;;;29.48;16.85;;;;;;;5.86;68.88;100132.09;5006706;28;20054;-70
2021/12/05 06:10:31;;;;;;;23.27;16.48;;;;;;;5.50;69.70;100146.31;5003883;28;20042;-70
2021/12/05 06:12:57;;;;;;;20.48;14.65;;;;;;;5.15;70.89;100124.91;5002894;28;20061;-70
2021/12/05 06:15:24;;;;;;;23.08;15.27;;;;;;;5.84;69.47;100133.78;5036980;28;20038;-70
2021/12/05 06:19:47;;;;;;;19.77;13.93;;;;;;;6.19;68.02;100137.78;5031818;28;21195;-70
2021/12/05 06:22:13;;;;;;;21.58;14.02;;;;;;;5.14;70.70;100138.75;5000587;28;20038;-70
2021/12/05 06:24:38;;;;;;;22.55;16.35;;;;;;;5.32;70.36;100140.78;4983864;28;20062;-70
2021/12/05 06:27:04;;;;;;;26.35;15.68;;;;;;;5.38;69.99;100142.59;4981928;28;20034;-70
2021/12/05 06:29:35;;;;;;;24.13;15.80;;;;;;;5.79;68.79;100127.66;4981436;28;20051;-71
2021/12/05 06:37:44;;;;;;;20.25;13.30;;;;;;;7.02;64.60;100115.25;4981282;28;20085;-69
2021/12/05 06:47:54;;;;;;;22.73;15.70;;;;;;;7.25;63.21;100141.56;4981952;28;20045;-70
2021/12/05 06:50:20;;;;;;;20.83;13.75;;;;;;;6.18;66.81;100151.66;4986950;28;20058;-72
2021/12/05 06:52:46;;;;;;;25.40;13.93;;;;;;;6.90;65.42;100145.56;4982735;28;20598;-71
2021/12/05 06:55:13;;;;;;;21.90;13.70;;;;;;;7.06;64.19;100145.72;4974308;28;20494;-72
2021/12/05 06:59:50;;;;;;;21.60;13.35;;;;;;;7.59;62.43;100148.81;5140415;27;20131;-71
2021/12/05 07:02:19;;;;;;;21.73;13.60;;;;;;;7.73;61.53;100112.38;5084195;27;20557;-70
2021/12/05 07:07:21;;;;;;;20.42;11.23;;;;;;;6.28;65.24;100111.84;5080377;28;20588;-69
2021/12/05 07:09:48;;;;;;;22.67;14.98;;;;;;;6.78;64.99;100157.63;5077722;28;20056;-70
2021/12/05 07:15:32;;;;;;;20.98;13.23;;;;;;;5.96;67.21;100150.47;5060065;28;20085;-70
2021/12/05 07:25:47;;;;;;;25.63;16.58;;;;;;;7.47;63.04;100177.44;5080405;28;20048;-71
2021/12/05 07:42:03;;;;;;;24.33;16.30;;;;;;;5.03;69.27;100135.06;5077716;28;20610;-70
2021/12/05 07:44:28;;;;;;;26.02;17.10;;;;;;;6.26;67.42;100170.88;5077323;28;20044;-70
2021/12/05 07:46:54;;;;;;;30.15;17.60;;;;;;;5.83;68.08;100136.34;5075719;28;20577;-69
2021/12/05 07:49:20;;;;;;;27.00;17.02;;;;;;;6.23;66.63;100117.00;5078109;28;20566;-71
2021/12/05 07:51:48;;;;;;;22.05;16.05;;;;;;;6.57;66.05;100108.72;5076681;28;20067;-70
2021/12/05 07:56:50;;;;;;;22.65;16.80;;;;;;;7.49;63.63;100143.50;5078984;28;20036;-71
2021/12/05 08:16:11;;;;;;;27.48;16.10;;;;;;;7.08;64.48;100138.81;5038555;28;20193;-69
2021/12/05 08:18:38;;;;;;;34.88;17.60;;;;;;;7.17;63.54;100126.72;5037756;28;20045;-70
2021/12/05 08:21:06;;;;;;;29.13;20.08;;;;;;;7.57;62.74;100152.28;5035384;28;20052;-69
2021/12/05 08:23:32;;;;;;;27.85;20.80;;;;;;;7.58;62.64;100125.31;5041009;28;20045;-70
2021/12/05 08:26:05;;;;;;;39.20;19.80;;;;;;;7.38;63.18;100131.25;5019295;28;20845;-70
2021/12/05 08:33:52;;;;;;;29.40;21.00;;;;;;;7.62;62.48;100134.91;5014036;28;20049;-67
2021/12/05 10:16:59;;;;;;;31.60;21.35;;;;;;;8.36;59.76;100068.25;4987245;28;20054;-71
2021/12/05 10:37:55;;;;;;;31.98;21.15;;;;;;;8.95;57.95;100030.03;5029621;27;20621;-71
2021/12/05 10:40:33;;;;;;;37.65;23.73;;;;;;;8.38;59.12;100047.34;5015453;28;20502;-71
2021/12/05 10:42:59;;;;;;;37.53;25.20;;;;;;;8.35;59.58;100073.47;5000207;28;20765;-70
2021/12/05 10:45:31;;;;;;;37.33;23.67;;;;;;;8.59;59.63;100086.69;4995440;28;20033;-72
2021/12/05 10:48:01;;;;;;;39.95;24.20;;;;;;;8.79;59.00;100078.00;4999547;28;20037;-70
2021/12/05 10:50:55;;;;;;;42.42;25.75;;;;;;;8.73;58.80;100060.53;4997165;28;20058;-70
2021/12/05 10:56:01;;;;;;;38.33;21.85;;;;;;;8.25;59.85;100018.53;5015905;28;20633;-69
2021/12/05 10:58:35;;;;;;;38.28;22.35;;;;;;;8.39;59.97;100046.47;4990011;28;20062;-70
2021/12/05 11:01:15;;;;;;;37.38;24.77;;;;;;;8.42;59.78;100002.94;4988206;28;20043;-70
2021/12/05 11:03:42;;;;;;;37.45;24.23;;;;;;;8.83;59.24;100038.75;4980555;28;20551;-69
2021/12/05 11:06:23;;;;;;;41.10;24.90;;;;;;;8.54;59.33;100004.69;4975316;28;20064;-71
2021/12/05 11:09:03;;;;;;;37.50;24.27;;;;;;;9.04;58.43;100014.34;4999211;28;20042;-71
2021/12/05 11:11:30;;;;;;;42.33;24.38;;;;;;;8.21;60.87;100035.09;5000626;28;20094;-70
2021/12/05 11:13:58;;;;;;;32.65;23.27;;;;;;;8.25;60.77;99996.78;4998010;28;20058;-71
2021/12/05 11:16:33;;;;;;;33.83;22.73;;;;;;;8.55;59.77;99993.38;4984591;28;20046;-70
2021/12/05 11:18:59;;;;;;;33.45;22.05;;;;;;;9.03;58.33;100014.34;4977821;28;20677;-73
2021/12/05 11:21:30;;;;;;;33.08;23.33;;;;;;;9.09;58.40;100019.56;4978304;28;20116;-71
2021/12/05 11:24:18;;;;;;;38.65;25.40;;;;;;;9.01;57.80;100009.13;4971465;28;20096;-70
2021/12/05 11:26:59;;;;;;;31.40;21.67;;;;;;;9.06;58.05;99996.00;4980023;28;20364;-71
2021/12/05 11:29:42;;;;;;;38.58;23.95;;;;;;;8.92;58.24;99995.13;4975114;28;20035;-70
2021/12/05 11:32:11;;;;;;;39.28;25.98;;;;;;;9.25;58.15;100015.22;4976080;28;20382;-72
2021/12/05 11:34:36;;;;;;;36.85;22.13;;;;;;;9.19;58.12;100002.97;4968398;28;20133;-70
2021/12/05 11:37:02;;;;;;;38.72;23.60;;;;;;;9.27;58.25;100003.84;4984606;28;20050;-70
2021/12/05 11:39:27;;;;;;;31.95;24.48;;;;;;;9.33;57.70;99970.69;4985056;28;20073;-72
2021/12/05 11:41:55;;;;;;;35.33;23.98;;;;;;;9.25;57.97;99968.94;5002524;28;20041;-70
2021/12/05 11:44:22;;;;;;;28.83;21.30;;;;;;;8.48;59.24;99968.09;4984822;28;20224;-71
2021/12/05 11:46:48;;;;;;;28.63;19.60;;;;;;;8.44;60.06;99993.34;5004637;28;20486;-71
2021/12/05 11:49:20;;;;;;;31.40;21.40;;;;;;;8.15;60.02;99966.28;4983927;28;20070;-70
2021/12/05 11:51:51;;;;;;;32.80;21.45;;;;;;;8.59;60.04;100000.38;4971373;28;20050;-71
2021/12/05 11:54:27;;;;;;;38.97;22.23;;;;;;;8.32;59.85;99961.94;4976302;28;20777;-69
2021/12/05 11:57:05;;;;;;;35.25;22.15;;;;;;;8.59;59.08;99961.16;4996920;28;20044;-71
2021/12/05 12:00:19;;;;;;;33.50;21.45;;;;;;;9.06;59.19;99982.91;5054100;27;20638;-71
2021/12/05 12:02:47;;;;;;;35.33;23.00;;;;;;;7.47;62.42;99947.72;5046695;28;20448;-71
2021/12/05 12:05:33;;;;;;;33.28;22.40;;;;;;;7.98;62.07;99974.94;5048708;28;20041;-72
2021/12/05 12:08:07;;;;;;;36.80;25.20;;;;;;;8.77;60.10;99973.34;5044881;28;20128;-72
2021/12/05 12:10:38;;;;;;;38.03;25.23;;;;;;;9.05;58.50;99947.16;5047008;28;20040;-71
2021/12/05 12:13:13;;;;;;;38.17;23.83;;;;;;;8.94;58.74;99964.63;5042001;28;20044;-71
2021/12/05 12:15:44;;;;;;;35.97;22.52;;;;;;;8.62;59.58;99976.84;5051591;28;20110;-73
2021/12/05 12:18:25;;;;;;;33.40;21.27;;;;;;;7.45;62.76;99975.56;5057811;28;20060;-72
2021/12/05 12:20:52;;;;;;;29.45;22.42;;;;;;;6.97;63.97;99935.22;5037713;28;20080;-71
2021/12/05 12:23:20;;;;;;;31.45;22.20;;;;;;;7.35;63.11;99943.31;5048408;28;20087;-73
2021/12/05 12:25:50;;;;;;;36.17;24.27;;;;;;;8.41;61.48;99968.97;5045877;28;20797;-73
2021/12/05 12:28:17;;;;;;;33.90;21.48;;;;;;;8.31;61.19;99964.53;5047310;28;20052;-73
2021/12/05 12:30:48;;;;;;;34.13;20.67;;;;;;;7.31;62.57;99928.50;5047852;28;20365;-73
2021/12/05 12:33:20;;;;;;;35.67;21.88;;;;;;;7.68;63.07;99964.34;5048311;28;20144;-74
2021/12/05 12:35:47;;;;;;;35.78;21.63;;;;;;;7.09;64.29;99971.81;5045330;28;20040;-70
2021/12/05 12:38:33;;;;;;;36.72;21.73;;;;;;;7.67;63.25;99960.84;5055698;28;20181;-72
2021/12/05 12:41:12;;;;;;;32.75;19.67;;;;;;;7.66;63.01;99940.84;5043113;28;20044;-71
2021/12/05 12:44:03;;;;;;;37.05;22.75;;;;;;;8.33;61.55;99981.09;5049873;28;20040;-71
2021/12/05 12:46:37;;;;;;;28.13;19.17;;;;;;;8.61;60.68;99972.44;5042113;28;20114;-72
2021/12/05 12:49:14;;;;;;;25.85;17.90;;;;;;;8.68;59.99;99977.69;5046076;28;20156;-72
2021/12/05 12:51:41;;;;;;;26.65;16.13;;;;;;;8.80;59.14;99977.69;5039822;28;20420;-71
2021/12/05 12:54:11;;;;;;;27.23;17.88;;;;;;;8.61;58.87;99943.69;5047770;28;20041;-71
2021/12/05 12:56:40;;;;;;;24.80;17.27;;;;;;;9.03;58.64;99978.56;5042556;28;20641;-71
2021/12/05 12:59:11;;;;;;;31.00;18.50;;;;;;;9.02;58.38;99981.19;5049891;28;20084;-71
2021/12/05 13:10:01;;;;;;;24.65;17.85;;;;;;;8.57;60.23;99989.03;5003583;28;20112;-71
2021/12/05 13:12:44;;;;;;;24.10;16.90;;;;;;;7.92;61.95;99984.47;5003874;28;20054;-69
2021/12/05 13:15:13;;;;;;;24.40;16.73;;;;;;;7.90;61.83;99968.78;5013735;28;20080;-70
2021/12/05 13:17:42;;;;;;;23.02;15.10;;;;;;;7.90;61.77;99960.09;5012089;28;20080;-70
2021/12/05 13:20:09;;;;;;;24.77;16.08;;;;;;;7.90;61.75;99967.94;5014021;28;20076;-70
2021/12/05 13:23:06;;;;;;;23.85;17.35;;;;;;;7.27;63.22;99955.44;5014384;28;20042;-71
2021/12/05 13:25:54;;;;;;;22.98;17.45;;;;;;;7.06;64.53;99953.56;5017467;28;20092;-70
2021/12/05 13:28:26;;;;;;;23.05;16.55;;;;;;;7.02;63.37;99936.13;5009269;28;20045;-70
2021/12/05 13:30:52;;;;;;;24.23;17.55;;;;;;;8.09;61.55;99963.63;5015288;28;20060;-71
2021/12/05 13:33:20;;;;;;;33.20;19.83;;;;;;;8.43;60.35;99962.88;5006749;28;20033;-71
2021/12/05 13:35:46;;;;;;;27.95;19.00;;;;;;;8.54;59.76;99925.38;5018725;28;20504;-71
2021/12/05 13:38:50;;;;;;;27.58;19.92;;;;;;;8.22;60.76;99976.72;5017355;28;20076;-69
2021/12/05 13:41:17;;;;;;;;;;;;;;;8.51;60.60;99982.91;5000175;28;20046;-70
2021/12/05 13:44:03;;;;;;;23.30;16.88;;;;;;;8.87;59.24;99980.34;4995394;28;20391;-70
2021/12/05 13:46:30;;;;;;;21.58;17.50;;;;;;;8.98;58.89;99977.69;5014801;28;20045;-70
2021/12/05 13:48:57;;;;;;;22.05;18.17;;;;;;;8.72;59.28;99969.84;5014734;28;20425;-71
2021/12/05 13:51:23;;;;;;;29.45;18.52;;;;;;;8.54;59.61;99957.63;5017184;28;20054;-69
2021/12/05 13:53:51;;;;;;;25.02;17.67;;;;;;;8.43;60.37;99978.56;5015190;28;20061;-69
2021/12/05 13:56:25;;;;;;;24.30;17.90;;;;;;;8.52;60.21;99975.09;5012227;28;20046;-71
2021/12/05 13:58:56;;;;;;;28.42;17.13;;;;;;;8.53;60.04;99942.81;5015044;28;20140;-71
2021/12/05 14:01:49;;;;;;;22.58;15.55;;;;;;;8.51;59.63;99917.56;5058297;27;20633;-69
2021/12/05 14:04:21;;;;;;;24.58;16.63;;;;;;;8.72;59.80;99942.84;5023753;28;20410;-71
2021/12/05 14:06:53;;;;;;;26.53;18.27;;;;;;;7.90;62.38;99954.88;5022849;28;20490;-71
2021/12/05 14:09:18;;;;;;;29.83;18.83;;;;;;;8.49;61.11;99962.00;5038569;28;20068;-70
2021/12/05 14:11:51;;;;;;;29.15;18.05;;;;;;;8.60;60.35;99943.72;5040282;28;20113;-70
2021/12/05 14:14:19;;;;;;;26.58;18.17;;;;;;;8.62;59.67;99918.44;5041475;28;20563;-70
2021/12/05 14:16:48;;;;;;;24.55;17.08;;;;;;;7.98;62.14;99947.91;5040349;28;20041;-71
2021/12/05 14:19:17;;;;;;;29.45;17.15;;;;;;;8.35;60.65;99953.22;5039465;28;20572;-70
2021/12/05 14:21:49;;;;;;;33.38;18.83;;;;;;;7.76;61.95;99936.53;5038885;28;20045;-69
2021/12/05 14:24:18;;;;;;;26.30;18.05;;;;;;;7.94;62.65;99956.63;5034741;28;20065;-70
2021/12/05 14:26:47;;;;;;;26.73;18.65;;;;;;;8.15;61.72;99967.13;5035191;28;20120;-69
2021/12/05 14:29:16;;;;;;;24.45;17.38;;;;;;;8.23;61.42;99962.78;5040464;28;20135;-69
2021/12/05 14:31:49;;;;;;;22.40;17.77;;;;;;;8.16;61.20;99981.06;5038919;28;20050;-70
2021/12/05 14:34:16;;;;;;;27.67;19.02;;;;;;;8.01;61.66;99943.56;5042646;28;20037;-69
2021/12/05 14:36:46;;;;;;;26.52;18.58;;;;;;;7.56;62.64;99970.38;5036705;28;20161;-70
2021/12/05 14:39:12;;;;;;;26.20;18.52;;;;;;;8.03;61.87;99980.16;5046515;28;20488;-70
2021/12/05 14:41:39;;;;;;;27.23;18.83;;;;;;;8.16;61.76;99984.53;5052109;28;20044;-69
2021/12/05 14:44:05;;;;;;;31.23;18.75;;;;;;;8.26;61.30;99974.97;5040835;28;20041;-70
2021/12/05 14:46:31;;;;;;;19.40;17.17;;;;;;;8.25;60.90;99975.88;5034621;28;20156;-70
2021/12/05 14:48:59;;;;;;;37.25;17.85;;;;;;;8.16;60.62;99934.91;5033781;28;20140;-71
2021/12/05 14:51:32;;;;;;;22.60;17.83;;;;;;;8.33;60.17;99934.91;5045397;28;20113;-70
2021/12/05 14:53:58;;;;;;;23.17;16.65;;;;;;;8.36;60.27;99970.69;5040677;28;20057;-70
2021/12/05 14:56:32;;;;;;;25.58;17.50;;;;;;;7.75;61.92;99974.84;5038259;28;20134;-70
2021/12/05 14:59:17;;;;;;;29.55;19.70;;;;;;;7.43;63.62;99982.50;5043249;28;20144;-69
2021/12/05 15:01:47;;;;;;;26.35;18.73;;;;;;;7.22;62.94;99945.84;5039713;28;20057;-70
2021/12/05 15:04:17;;;;;;;30.58;18.55;;;;;;;7.48;63.20;99970.34;5025711;28;20137;-70
2021/12/05 15:06:44;;;;;;;26.00;21.17;;;;;;;7.77;62.89;99978.31;5023777;28;20757;-70
2021/12/05 15:09:32;;;;;;;29.52;20.80;;;;;;;7.79;63.01;99988.75;5036239;28;20026;-71
2021/12/05 15:11:59;;;;;;;32.75;20.83;;;;;;;8.06;61.47;99954.03;5030129;28;20053;-70
2021/12/05 15:14:25;;;;;;;28.10;21.17;;;;;;;8.38;61.21;99982.88;5020892;28;20516;-68
2021/12/05 15:16:55;;;;;;;38.70;23.63;;;;;;;8.19;61.05;99947.09;5025430;28;20049;-69
2021/12/05 15:19:21;;;;;;;37.00;23.77;;;;;;;7.85;61.84;99949.63;5010736;28;20069;-70
2021/12/05 15:21:47;;;;;;;27.63;23.30;;;;;;;7.94;61.80;99944.44;5010470;28;20053;-69
2021/12/05 15:24:14;;;;;;;35.30;23.08;;;;;;;8.19;61.91;99979.34;5030699;28;20429;-70
2021/12/05 15:26:40;;;;;;;30.98;23.05;;;;;;;7.63;62.96;99972.16;5028713;28;20037;-69
2021/12/05 15:29:06;;;;;;;35.75;23.35;;;;;;;7.09;65.25;99992.69;5022598;28;20452;-69
2021/12/05 15:31:40;;;;;;;32.33;25.13;;;;;;;7.65;63.63;99993.91;5024112;28;20087;-71
2021/12/05 15:34:27;;;;;;;33.55;22.70;;;;;;;7.03;64.79;100007.47;5024205;28;20049;-71
2021/12/05 15:36:54;;;;;;;39.55;27.88;;;;;;;7.46;63.85;99995.56;5036607;28;20054;-69
2021/12/05 15:39:24;;;;;;;35.15;25.90;;;;;;;7.13;64.90;99997.09;5027242;28;20045;-70
2021/12/05 15:41:52;;;;;;;31.33;23.90;;;;;;;7.54;64.20;99996.50;5022238;28;20034;-71
2021/12/05 15:44:24;;;;;;;41.78;27.42;;;;;;;7.97;63.07;99994.06;5024514;28;20037;-70
2021/12/05 15:46:49;;;;;;;39.08;27.90;;;;;;;8.16;62.39;100004.59;5017549;28;20049;-71
2021/12/05 15:49:15;;;;;;;39.50;28.67;;;;;;;8.32;61.86;100009.00;5025340;28;20409;-70
2021/12/05 15:51:41;;;;;;;40.13;28.10;;;;;;;8.27;61.98;100021.19;5022073;28;20045;-71
2021/12/05 15:54:06;;;;;;;39.85;28.80;;;;;;;8.30;62.01;100023.78;5029589;28;20867;-69
2021/12/05 15:56:32;;;;;;;37.38;27.35;;;;;;;8.18;61.75;99981.94;5022517;28;20037;-71
2021/12/05 15:59:02;;;;;;;37.30;28.00;;;;;;;8.38;61.71;100018.56;5022213;28;20410;-69
2021/12/05 16:01:30;;;;;;;47.55;29.20;;;;;;;8.44;61.61;100016.88;5021496;28;20583;-70
2021/12/05 16:03:58;;;;;;;52.65;36.45;;;;;;;8.01;62.25;99984.50;5023921;28;20056;-71
2021/12/05 16:06:42;;;;;;;44.95;32.20;;;;;;;8.01;63.00;100021.09;5022202;28;20706;-70
2021/12/05 16:09:16;;;;;;;47.55;31.30;;;;;;;8.12;62.34;100024.59;5031915;28;20083;-70
2021/12/05 16:11:41;;;;;;;47.70;33.00;;;;;;;7.97;62.34;99983.63;5023007;28;20061;-70
2021/12/05 16:14:07;;;;;;;53.72;33.03;;;;;;;8.28;61.49;99993.28;5021050;28;20129;-69
2021/12/05 16:16:35;;;;;;;57.22;33.65;;;;;;;7.89;61.96;99987.97;5022981;28;20045;-70
2021/12/05 16:19:03;;;;;;;42.63;31.30;;;;;;;7.75;63.49;100036.63;5024510;28;20132;-71
2021/12/05 16:21:31;;;;;;;46.72;32.30;;;;;;;6.85;66.08;100029.91;5029162;28;20029;-71
2021/12/05 16:24:03;;;;;;;45.65;34.35;;;;;;;7.14;65.90;100024.03;5022085;28;20107;-70
2021/12/05 16:26:29;;;;;;;42.60;31.17;;;;;;;7.46;64.83;100021.66;5027828;28;20191;-71
2021/12/05 16:28:58;;;;;;;41.40;30.08;;;;;;;7.38;64.54;99986.81;5020399;28;20818;-71
2021/12/05 16:31:32;;;;;;;42.17;31.38;;;;;;;6.41;66.24;100001.66;5024288;28;20059;-70
2021/12/05 16:33:59;;;;;;;;;;;;;;;6.86;66.70;100031.66;5025893;28;20049;-69
2021/12/05 16:36:32;;;;;;;42.20;30.42;;;;;;;7.33;65.25;100023.34;5021705;28;19964;-68
2021/12/05 16:39:07;;;;;;;40.00;29.13;;;;;;;7.55;63.93;99985.16;5023360;28;20541;-67
2021/12/05 16:41:33;;;;;;;46.75;33.42;;;;;;;7.45;63.96;99987.75;5021706;28;20053;-66
2021/12/05 16:44:01;;;;;;;43.88;32.35;;;;;;;7.80;63.36;100012.28;5024659;28;20462;-71
2021/12/05 16:46:34;;;;;;;52.25;32.25;;;;;;;7.83;63.46;100016.66;5021812;28;20058;-71
2021/12/05 16:49:03;;;;;;;45.65;30.17;;;;;;;7.96;63.13;100018.47;5020792;28;20053;-71
2021/12/05 16:51:34;;;;;;;48.80;33.25;;;;;;;8.14;62.49;100009.78;5020085;28;20064;-72
2021/12/05 16:54:24;;;;;;;45.58;33.28;;;;;;;7.95;62.92;100018.44;5023427;28;20034;-72
2021/12/05 16:57:00;;;;;;;37.63;28.48;;;;;;;7.83;62.71;99978.34;5022648;28;20107;-72
2021/12/05 16:59:37;;;;;;;48.25;32.00;;;;;;;7.47;64.24;100004.25;5023629;28;20038;-72
2021/12/05 17:02:18;;;;;;;42.13;31.88;;;;;;;7.86;63.23;100000.97;5020407;28;20050;-71
2021/12/05 17:04:56;;;;;;;52.28;32.17;;;;;;;7.77;62.99;99978.31;5000268;28;20053;-73
2021/12/05 17:08:07;;;;;;;47.08;31.52;;;;;;;7.99;62.31;100009.75;5007641;28;20592;-72
2021/12/05 17:10:57;;;;;;;50.80;30.73;;;;;;;6.47;66.71;99991.31;5015250;28;20042;-70
2021/12/05 17:13:50;;;;;;;44.10;28.48;;;;;;;6.20;67.94;100015.34;5020378;28;20122;-70
2021/12/05 17:16:24;;;;;;;41.95;31.35;;;;;;;5.44;70.45;99992.69;5020603;28;20042;-70
2021/12/05 17:18:49;;;;;;;;;;;;;;;6.26;69.24;100019.75;5023060;28;20401;-71
2021/12/05 17:21:22;;;;;;;50.72;31.83;;;;;;;7.00;66.64;100013.53;5024812;28;19927;-71
2021/12/05 17:23:57;;;;;;;;;;;;;;;7.37;65.69;100025.13;5024571;28;20056;-71
2021/12/05 17:26:42;;;;;;;43.60;30.67;;;;;;;7.46;64.13;99987.72;5037865;28;19917;-71
2021/12/05 17:29:07;;;;;;;61.58;43.28;;;;;;;7.20;65.63;100026.72;5023684;28;20507;-71
2021/12/05 17:31:42;;;;;;;62.15;42.42;;;;;;;6.28;68.14;100015.44;5026897;28;20056;-72